createdAt,value
2018-05-02T00:57:13.934Z,11.40
2018-05-02T01:00:37.085Z,10.70
2018-05-02T01:03:59.955Z,10.80
2018-05-02T01:07:22.885Z,10.80
2018-05-02T01:10:45.794Z,10.80
2018-05-02T01:14:08.636Z,10.70
2018-05-02T01:17:31.499Z,10.70
2018-05-02T01:20:54.547Z,10.70
2018-05-02T01:24:17.474Z,10.70
2018-05-02T01:27:40.347Z,10.70
2018-05-02T01:31:04.717Z,10.60
2018-05-02T01:34:27.570Z,10.60
2018-05-02T01:37:50.461Z,10.70
2018-05-02T01:41:13.292Z,10.60
2018-05-02T01:44:36.152Z,10.70
2018-05-02T01:47:59.021Z,10.80
2018-05-02T01:51:21.871Z,10.70
2018-05-02T01:54:44.765Z,10.70
2018-05-02T01:58:07.629Z,10.60
2018-05-02T02:01:30.476Z,10.60
2018-05-02T02:04:53.331Z,10.60
2018-05-02T02:08:16.242Z,10.70
2018-05-02T02:11:39.087Z,10.80
2018-05-02T02:15:01.957Z,10.70
2018-05-02T02:18:24.858Z,10.60
2018-05-02T02:21:47.734Z,10.60
2018-05-02T02:25:11.378Z,10.60
2018-05-02T02:28:34.289Z,10.60
2018-05-02T02:31:57.214Z,10.60
2018-05-02T02:35:20.039Z,10.60
2018-05-02T02:38:42.891Z,10.50
2018-05-02T02:42:05.752Z,10.40
2018-05-02T02:45:29.410Z,10.40
2018-05-02T02:48:52.318Z,10.40
2018-05-02T02:52:15.175Z,10.40
2018-05-02T02:55:38.134Z,10.50
2018-05-02T02:59:01.043Z,10.50
2018-05-02T03:02:23.921Z,10.60
2018-05-02T03:05:46.762Z,10.50
2018-05-02T03:09:09.756Z,10.40
2018-05-02T03:12:32.616Z,10.40
2018-05-02T03:15:56.475Z,10.40
2018-05-02T03:19:19.357Z,10.30
2018-05-02T03:22:42.994Z,10.40
2018-05-02T03:26:06.757Z,10.30
2018-05-02T03:29:29.635Z,10.30
2018-05-02T03:32:53.409Z,10.30
2018-05-02T03:36:16.254Z,10.20
2018-05-02T03:39:39.117Z,10.30
2018-05-02T03:43:02.031Z,10.30
2018-05-02T03:46:25.154Z,10.40
2018-05-02T03:49:48.008Z,10.30
2018-05-02T03:53:10.853Z,10.30
2018-05-02T03:56:33.716Z,10.30
2018-05-02T04:00:08.289Z,10.30
2018-05-02T04:03:44.387Z,10.30
2018-05-02T04:07:10.597Z,10.40
2018-05-02T04:10:34.320Z,10.40
2018-05-02T04:13:57.251Z,10.30
2018-05-02T04:17:20.235Z,10.30
2018-05-02T04:20:43.091Z,10.40
2018-05-02T04:24:06.099Z,10.30
2018-05-02T04:27:29.801Z,10.30
2018-05-02T04:30:52.658Z,10.30
2018-05-02T04:34:15.636Z,10.30
2018-05-02T04:37:38.516Z,10.20
2018-05-02T04:41:01.624Z,10.20
2018-05-02T04:44:24.453Z,10.30
2018-05-02T04:47:47.280Z,10.40
2018-05-02T04:51:10.899Z,10.50
2018-05-02T04:54:34.180Z,10.50
2018-05-02T04:57:57.055Z,10.30
2018-05-02T05:01:21.443Z,10.30
2018-05-02T05:04:45.036Z,10.40
2018-05-02T05:08:07.899Z,10.40
2018-05-02T05:16:06.647Z,10.40
2018-05-02T05:19:30.228Z,10.40
2018-05-02T05:22:53.767Z,10.40
2018-05-02T05:26:17.503Z,10.40
2018-05-02T05:29:43.151Z,10.50
2018-05-02T05:33:09.597Z,10.50
2018-05-02T05:36:34.737Z,10.40
2018-05-02T05:40:00.541Z,10.40
2018-05-02T05:43:24.134Z,10.40
2018-05-02T05:46:48.704Z,10.50
2018-05-02T05:50:13.561Z,10.50
2018-05-02T05:53:37.413Z,10.50
2018-05-02T05:57:01.355Z,10.50
2018-05-02T06:00:25.031Z,10.60
2018-05-02T06:03:48.133Z,10.60
2018-05-02T06:07:11.200Z,10.80
2018-05-02T06:10:35.145Z,10.70
2018-05-02T06:13:59.814Z,10.80
2018-05-02T06:17:22.720Z,10.80
2018-05-02T06:20:46.549Z,10.80
2018-05-02T06:24:11.553Z,11.00
2018-05-02T06:27:34.459Z,11.00
2018-05-02T06:30:57.295Z,11.10
2018-05-02T06:34:20.142Z,11.20
2018-05-02T06:37:44.166Z,11.40
2018-05-02T06:41:07.714Z,11.20
2018-05-02T06:44:31.345Z,11.30
2018-05-02T06:47:54.190Z,11.30
2018-05-02T06:51:17.829Z,11.60
2018-05-02T06:54:41.528Z,11.30
2018-05-02T06:58:04.302Z,11.30
2018-05-02T07:01:27.136Z,11.40
2018-05-02T07:04:49.966Z,11.40
2018-05-02T07:08:14.882Z,11.60
2018-05-02T07:11:38.163Z,11.60
2018-05-02T07:15:01.491Z,11.50
2018-05-02T07:18:25.542Z,11.60
2018-05-02T07:21:48.842Z,11.50
2018-05-02T07:25:12.136Z,11.70
2018-05-02T07:28:35.423Z,11.80
2018-05-02T07:31:58.720Z,11.90
2018-05-02T07:35:22.765Z,12.10
2018-05-02T07:38:46.080Z,12.00
2018-05-02T07:42:10.197Z,12.10
2018-05-02T07:45:33.478Z,12.10
2018-05-02T07:48:56.310Z,12.10
2018-05-02T07:52:20.381Z,12.20
2018-05-02T07:55:44.422Z,12.30
2018-05-02T07:59:07.690Z,12.30
2018-05-02T08:02:31.653Z,12.30
2018-05-02T08:05:54.954Z,12.30
2018-05-02T08:09:18.270Z,12.30
2018-05-02T08:12:42.334Z,12.50
2018-05-02T08:16:06.422Z,12.50
2018-05-02T08:19:31.223Z,12.60
2018-05-02T08:22:54.506Z,12.60
2018-05-02T08:26:17.794Z,12.70
2018-05-02T08:29:41.087Z,13.00
2018-05-02T08:33:05.137Z,13.00
2018-05-02T08:36:28.408Z,12.90
2018-05-02T08:39:51.852Z,13.00
2018-05-02T08:43:15.166Z,13.10
2018-05-02T08:46:39.212Z,13.40
2018-05-02T08:50:02.503Z,13.40
2018-05-02T08:53:26.896Z,13.80
2018-05-02T08:56:50.227Z,13.90
2018-05-02T09:00:13.597Z,13.80
2018-05-02T09:03:36.881Z,14.00
2018-05-02T09:07:00.178Z,14.00
2018-05-02T09:10:23.493Z,14.20
2018-05-02T09:13:47.591Z,14.10
2018-05-02T09:17:10.859Z,14.00
2018-05-02T09:20:34.982Z,14.30
2018-05-02T09:23:58.266Z,14.30
2018-05-02T09:27:21.721Z,14.30
2018-05-02T09:30:45.028Z,14.30
2018-05-02T09:34:08.372Z,14.40
2018-05-02T09:37:32.406Z,14.80
2018-05-02T09:40:55.727Z,14.70
2018-05-02T09:44:19.774Z,15.00
2018-05-02T09:47:43.046Z,15.00
2018-05-02T09:51:06.334Z,15.10
2018-05-02T09:54:29.657Z,15.30
2018-05-02T09:57:52.926Z,15.20
2018-05-02T10:01:16.203Z,15.20
2018-05-02T10:04:39.499Z,15.20
2018-05-02T10:08:02.771Z,15.20
2018-05-02T10:11:26.107Z,15.60
2018-05-02T10:14:49.403Z,15.40
2018-05-02T10:18:12.705Z,15.20
2018-05-02T10:21:36.041Z,15.30
2018-05-02T10:25:00.087Z,15.20
2018-05-02T10:28:23.361Z,15.20
2018-05-02T10:31:46.747Z,15.10
2018-05-02T10:35:10.886Z,15.50
2018-05-02T10:38:34.160Z,15.40
2018-05-02T10:41:57.454Z,15.50
2018-05-02T10:45:22.248Z,15.00
2018-05-02T10:48:46.352Z,14.80
2018-05-02T10:52:11.141Z,14.80
2018-05-02T10:55:34.436Z,14.80
2018-05-02T10:58:57.743Z,15.20
2018-05-02T11:02:21.935Z,15.30
2018-05-02T11:05:45.246Z,15.30
2018-05-02T11:09:09.347Z,15.10
2018-05-02T11:12:33.419Z,15.30
2018-05-02T11:15:57.470Z,15.30
2018-05-02T11:19:20.852Z,15.30
2018-05-02T11:22:44.176Z,15.40
2018-05-02T11:26:07.504Z,15.80
2018-05-02T11:29:31.561Z,16.10
2018-05-02T11:32:54.832Z,16.10
2018-05-02T11:36:18.183Z,16.20
2018-05-02T11:39:41.470Z,16.00
2018-05-02T11:43:04.742Z,15.90
2018-05-02T11:46:28.970Z,15.90
2018-05-02T11:49:53.054Z,16.50
2018-05-02T11:53:16.334Z,16.50
2018-05-02T11:56:40.397Z,17.00
2018-05-02T12:00:03.691Z,16.90
2018-05-02T12:03:27.771Z,16.50
2018-05-02T12:06:52.586Z,16.10
2018-05-02T12:10:17.383Z,15.70
2018-05-02T12:13:40.672Z,15.80
2018-05-02T12:17:05.044Z,15.90
2018-05-02T12:20:28.318Z,16.30
2018-05-02T12:23:51.609Z,16.40
2018-05-02T12:27:14.915Z,16.70
2018-05-02T12:30:39.008Z,16.70
2018-05-02T12:34:02.332Z,16.70
2018-05-02T12:37:26.690Z,16.70
2018-05-02T12:40:50.012Z,16.60
2018-05-02T12:44:13.289Z,16.20
2018-05-02T12:47:38.068Z,16.10
2018-05-02T12:51:01.354Z,16.10
2018-05-02T12:54:25.620Z,16.10
2018-05-02T12:57:49.658Z,16.50
2018-05-02T13:01:12.929Z,16.50
2018-05-02T13:04:36.973Z,16.60
2018-05-02T13:08:00.327Z,16.60
2018-05-02T13:11:23.818Z,16.70
2018-05-02T13:14:47.104Z,16.90
2018-05-02T13:18:10.375Z,16.80
2018-05-02T13:21:34.461Z,16.90
2018-05-02T13:24:58.515Z,16.70
2018-05-02T13:28:21.805Z,16.70
2018-05-02T13:31:46.610Z,16.70
2018-05-02T13:35:12.363Z,17.00
2018-05-02T13:38:35.637Z,17.00
2018-05-02T13:41:58.945Z,17.10
2018-05-02T13:45:23.001Z,16.70
2018-05-02T13:48:46.267Z,16.70
2018-05-02T13:52:09.604Z,16.70
2018-05-02T13:55:33.866Z,16.70
2018-05-02T13:58:57.193Z,16.70
2018-05-02T14:02:20.571Z,17.00
2018-05-02T14:05:43.870Z,17.00
2018-05-02T14:09:07.177Z,16.90
2018-05-02T14:12:31.260Z,17.20
2018-05-02T14:15:54.557Z,17.20
2018-05-02T14:19:19.177Z,17.00
2018-05-02T14:22:42.464Z,17.00
2018-05-02T14:26:05.780Z,16.90
2018-05-02T14:29:30.878Z,17.00
2018-05-02T14:32:55.213Z,16.90
2018-05-02T14:36:19.384Z,16.90
2018-05-02T14:39:42.675Z,16.50
2018-05-02T14:43:06.001Z,16.30
2018-05-02T14:46:29.311Z,16.30
2018-05-02T14:49:52.613Z,16.30
2018-05-02T14:53:15.922Z,16.40
2018-05-02T14:56:39.990Z,16.20
2018-05-02T15:00:04.069Z,16.10
2018-05-02T15:03:29.773Z,16.10
2018-05-02T15:06:54.300Z,15.80
2018-05-02T15:10:17.820Z,15.70
2018-05-02T15:13:41.156Z,15.70
2018-05-02T15:17:05.376Z,15.70
2018-05-02T15:20:29.685Z,15.60
2018-05-02T15:23:52.995Z,15.50
2018-05-02T15:27:16.326Z,15.70
2018-05-02T15:30:39.639Z,15.60
2018-05-02T15:34:03.002Z,15.60
2018-05-02T15:37:26.337Z,15.60
2018-05-02T15:40:49.638Z,15.60
2018-05-02T15:44:12.923Z,15.60
2018-05-02T15:47:37.245Z,15.60
2018-05-02T15:51:00.558Z,15.60
2018-05-02T15:54:23.869Z,15.60
2018-05-02T15:57:47.210Z,15.60
2018-05-02T16:01:12.992Z,15.60
2018-05-02T16:04:36.363Z,15.70
2018-05-02T16:07:59.641Z,15.70
2018-05-02T16:11:22.965Z,15.60
2018-05-02T16:14:46.455Z,15.50
2018-05-02T16:18:10.526Z,15.20
2018-05-02T16:21:35.714Z,15.20
2018-05-02T16:24:59.804Z,15.10
2018-05-02T16:28:23.148Z,15.10
2018-05-02T16:31:47.862Z,15.10
2018-05-02T16:35:12.310Z,15.10
2018-05-02T16:38:35.978Z,15.10
2018-05-02T16:42:00.118Z,15.00
2018-05-02T16:45:23.432Z,14.90
2018-05-02T16:48:47.526Z,14.80
2018-05-02T16:52:10.877Z,14.80
2018-05-02T16:55:34.382Z,14.70
2018-05-02T16:58:58.472Z,14.70
2018-05-02T17:10:16.114Z,14.70
2018-05-02T17:13:40.191Z,14.80
2018-05-02T17:17:03.504Z,14.80
2018-05-02T17:20:27.616Z,14.70
2018-05-02T17:23:50.948Z,14.70
2018-05-02T17:27:14.994Z,14.60
2018-05-02T17:30:38.314Z,14.60
2018-05-02T17:34:03.265Z,14.80
2018-05-02T17:37:27.318Z,14.60
2018-05-02T17:40:50.784Z,14.60
2018-05-02T17:44:15.042Z,14.50
2018-05-02T17:47:40.523Z,14.50
2018-05-02T17:51:03.857Z,14.60
2018-05-02T17:54:27.187Z,14.70
2018-05-02T17:57:50.501Z,14.60
2018-05-02T18:01:13.797Z,14.50
2018-05-02T18:04:37.127Z,14.50
2018-05-02T18:08:00.448Z,14.40
2018-05-02T18:11:25.287Z,14.30
2018-05-02T18:14:49.735Z,14.30
2018-05-02T18:18:14.077Z,14.40
2018-05-02T18:21:39.467Z,14.40
2018-05-02T18:25:03.741Z,14.20
2018-05-02T18:28:27.995Z,14.20
2018-05-02T18:31:51.432Z,14.10
2018-05-02T18:35:14.763Z,14.10
2018-05-02T18:38:38.915Z,14.00
2018-05-02T18:42:02.476Z,14.00
2018-05-02T18:45:26.582Z,14.00
2018-05-02T18:48:49.938Z,14.00
2018-05-02T18:52:14.217Z,13.80
2018-05-02T18:55:38.367Z,13.60
2018-05-02T18:59:02.666Z,13.70
2018-05-02T19:02:26.202Z,13.70
2018-05-02T19:05:49.641Z,13.80
2018-05-02T19:09:13.368Z,13.70
2018-05-02T19:12:36.808Z,13.80
2018-05-02T19:16:00.323Z,13.70
2018-05-02T19:19:29.168Z,13.70
2018-05-02T19:22:52.540Z,13.70
2018-05-02T19:26:21.361Z,13.60
2018-05-02T19:29:46.247Z,13.70
2018-05-02T19:33:16.670Z,13.70
2018-05-02T19:36:40.765Z,13.70
2018-05-02T19:40:10.318Z,13.70
2018-05-02T19:43:39.596Z,13.60
2018-05-02T19:47:03.202Z,13.70
2018-05-02T19:50:26.554Z,13.80
2018-05-02T19:53:50.627Z,13.80
2018-05-02T19:57:15.710Z,13.80
2018-05-02T20:00:44.599Z,13.80
2018-05-02T20:04:07.940Z,13.80
2018-05-02T20:07:36.868Z,13.70
2018-05-02T20:11:05.653Z,13.70
2018-05-02T20:14:29.773Z,13.60
2018-05-02T20:17:53.212Z,13.60
2018-05-02T20:21:16.538Z,13.70
2018-05-02T20:24:40.678Z,13.70
2018-05-02T20:28:04.775Z,13.70
2018-05-02T20:31:35.367Z,13.70
2018-05-02T20:34:58.696Z,13.70
2018-05-02T20:38:22.072Z,13.60
2018-05-02T20:41:45.440Z,13.60
2018-05-02T20:45:08.822Z,13.60
2018-05-02T20:48:32.896Z,13.60
2018-05-02T20:51:56.206Z,13.60
2018-05-02T20:55:20.299Z,13.70
2018-05-02T20:58:44.351Z,13.60
2018-05-02T21:02:07.635Z,13.60
2018-05-02T21:05:30.917Z,13.60
2018-05-02T21:08:54.237Z,13.60
2018-05-02T21:12:17.565Z,13.50
2018-05-02T21:15:41.875Z,13.60
2018-05-02T21:19:06.944Z,13.60
2018-05-02T21:22:30.258Z,13.50
2018-05-02T21:25:53.552Z,13.70
2018-05-02T21:29:17.612Z,13.50
2018-05-02T21:32:40.891Z,13.50
2018-05-02T21:36:04.327Z,13.60
2018-05-02T21:39:28.700Z,13.60
2018-05-02T21:42:52.027Z,13.60
2018-05-02T21:46:15.403Z,13.60
2018-05-02T21:49:38.702Z,13.60
2018-05-02T21:53:02.043Z,13.60
2018-05-02T21:56:26.461Z,13.70
2018-05-02T21:59:50.594Z,13.70
2018-05-02T22:03:15.369Z,13.60
2018-05-02T22:06:38.859Z,13.70
2018-05-02T22:10:02.273Z,13.70
2018-05-02T22:13:27.471Z,13.70
2018-05-02T22:16:50.865Z,13.70
2018-05-02T22:20:14.226Z,13.60
2018-05-02T22:23:37.618Z,13.70
2018-05-02T22:27:01.127Z,13.70
2018-05-02T22:30:24.457Z,13.70
2018-05-02T22:33:48.529Z,13.50
2018-05-02T22:37:12.653Z,13.30
2018-05-02T22:40:35.959Z,13.30
2018-05-02T22:43:59.273Z,13.30
2018-05-02T22:47:22.567Z,13.30
2018-05-02T22:50:45.905Z,13.30
2018-05-02T22:54:09.963Z,13.20
2018-05-02T22:57:33.273Z,13.20
2018-05-02T23:00:57.354Z,13.10
2018-05-02T23:04:22.149Z,13.10
2018-05-02T23:07:45.442Z,13.10
2018-05-02T23:11:08.724Z,13.20
2018-05-02T23:14:32.008Z,13.20
2018-05-02T23:17:56.335Z,13.10
2018-05-02T23:21:19.651Z,13.00
2018-05-02T23:24:42.943Z,13.10
2018-05-02T23:28:06.251Z,13.00
2018-05-02T23:31:30.325Z,13.00
2018-05-02T23:34:53.619Z,13.00
2018-05-02T23:38:17.690Z,12.90
2018-05-02T23:41:40.988Z,12.90
2018-05-02T23:45:05.055Z,13.10
2018-05-02T23:48:28.340Z,13.10
2018-05-02T23:51:51.621Z,13.10
2018-05-02T23:55:14.923Z,13.10
2018-05-02T23:58:39.708Z,13.00
